createdAt,value
2018-07-07T00:01:40.960Z,26.17
2018-07-07T00:04:11.497Z,25.83
2018-07-07T00:06:42.105Z,26.23
2018-07-07T00:09:12.743Z,23.90
2018-07-07T00:11:43.422Z,24.90
2018-07-07T00:14:14.118Z,23.50
2018-07-07T00:16:44.733Z,25.50
2018-07-07T00:19:15.362Z,24.50
2018-07-07T00:21:46.058Z,24.37
2018-07-07T00:24:16.749Z,23.67
2018-07-07T00:26:47.582Z,23.97
2018-07-07T00:29:18.238Z,23.40
2018-07-07T00:31:49.005Z,24.50
2018-07-07T00:34:19.274Z,22.97
2018-07-07T00:36:49.845Z,24.80
2018-07-07T00:39:20.433Z,23.77
2018-07-07T00:41:51.193Z,21.60
2018-07-07T00:44:21.846Z,23.60
2018-07-07T00:46:52.574Z,23.67
2018-07-07T00:49:23.202Z,22.43
2018-07-07T00:51:53.919Z,20.80
2018-07-07T00:54:24.625Z,22.13
2018-07-07T00:56:55.341Z,20.47
2018-07-07T00:59:25.941Z,20.50
2018-07-07T01:01:56.778Z,20.33
2018-07-07T01:04:27.587Z,20.40
2018-07-07T01:06:58.275Z,21.50
2018-07-07T01:09:28.970Z,21.50
2018-07-07T01:12:00.629Z,20.37
2018-07-07T01:14:31.272Z,21.50
2018-07-07T01:17:01.842Z,21.70
2018-07-07T01:19:32.609Z,20.70
2018-07-07T01:22:03.366Z,21.20
2018-07-07T01:24:33.977Z,20.00
2018-07-07T01:27:04.641Z,21.50
2018-07-07T01:29:35.319Z,19.40
2018-07-07T01:32:05.945Z,20.97
2018-07-07T01:34:36.566Z,20.23
2018-07-07T01:37:07.944Z,20.00
2018-07-07T01:39:38.565Z,21.67
2018-07-07T01:42:09.290Z,21.50
2018-07-07T01:44:39.896Z,21.47
2018-07-07T01:47:10.522Z,21.47
2018-07-07T01:49:41.191Z,21.67
2018-07-07T01:52:11.737Z,21.30
2018-07-07T01:54:42.339Z,21.93
2018-07-07T01:57:12.915Z,21.70
2018-07-07T01:59:43.533Z,21.43
2018-07-07T02:02:14.193Z,22.37
2018-07-07T02:04:44.800Z,21.67
2018-07-07T02:07:15.337Z,21.07
2018-07-07T02:09:45.919Z,22.20
2018-07-07T02:12:17.541Z,20.50
2018-07-07T02:14:48.175Z,20.67
2018-07-07T02:17:18.824Z,21.20
2018-07-07T02:19:49.493Z,21.53
2018-07-07T02:22:24.221Z,21.07
2018-07-07T02:24:54.818Z,20.20
2018-07-07T02:27:25.494Z,20.60
2018-07-07T02:29:56.097Z,21.30
2018-07-07T02:32:26.786Z,22.23
2018-07-07T02:34:57.454Z,23.17
2018-07-07T02:37:28.083Z,21.37
2018-07-07T02:39:58.709Z,23.93
2018-07-07T02:42:29.393Z,21.30
2018-07-07T02:45:00.098Z,21.30
2018-07-07T02:47:30.782Z,22.93
2018-07-07T02:50:00.993Z,21.70
2018-07-07T02:52:31.603Z,21.03
2018-07-07T02:55:02.308Z,22.20
2018-07-07T02:57:33.060Z,22.90
2018-07-07T03:00:03.723Z,22.70
2018-07-07T03:02:34.353Z,21.03
2018-07-07T03:05:04.674Z,21.30
2018-07-07T03:07:35.341Z,21.67
2018-07-07T03:10:06.180Z,23.20
2018-07-07T03:12:36.951Z,22.43
2018-07-07T03:15:07.730Z,20.40
2018-07-07T03:17:39.613Z,22.87
2018-07-07T03:20:10.658Z,21.03
2018-07-07T03:22:41.346Z,22.27
2018-07-07T03:25:12.059Z,23.23
2018-07-07T03:27:42.757Z,22.10
2018-07-07T03:30:13.461Z,21.70
2018-07-07T03:32:44.122Z,21.90
2018-07-07T03:35:14.834Z,22.37
2018-07-07T03:37:45.518Z,22.43
2018-07-07T03:40:16.173Z,23.00
2018-07-07T03:42:46.833Z,21.57
2018-07-07T03:45:17.426Z,23.93
2018-07-07T03:47:48.118Z,22.00
2018-07-07T03:50:18.751Z,22.83
2018-07-07T03:52:49.469Z,23.63
2018-07-07T03:55:20.154Z,22.63
2018-07-07T03:57:50.873Z,22.67
2018-07-07T04:00:21.582Z,22.07
2018-07-07T04:02:52.225Z,22.23
2018-07-07T04:05:22.815Z,22.23
2018-07-07T04:07:53.495Z,21.83
2018-07-07T04:10:24.144Z,22.00
2018-07-07T04:12:54.930Z,20.13
2018-07-07T04:15:25.714Z,19.30
2018-07-07T04:17:56.383Z,20.87
2018-07-07T04:20:27.058Z,21.20
2018-07-07T04:22:57.629Z,21.03
2018-07-07T04:25:28.845Z,20.53
2018-07-07T04:27:59.556Z,21.53
2018-07-07T04:30:30.384Z,21.67
2018-07-07T04:33:01.097Z,21.80
2018-07-07T04:35:31.697Z,22.00
2018-07-07T04:38:02.365Z,20.00
2018-07-07T04:40:33.705Z,21.10
2018-07-07T04:43:04.507Z,21.97
2018-07-07T04:45:35.179Z,21.33
2018-07-07T04:48:06.084Z,21.27
2018-07-07T04:50:36.877Z,22.27
2018-07-07T04:53:07.688Z,21.33
2018-07-07T04:55:39.221Z,21.50
2018-07-07T04:58:10.732Z,20.63
2018-07-07T05:00:42.417Z,23.13
2018-07-07T05:03:13.105Z,21.77
2018-07-07T05:05:43.785Z,22.40
2018-07-07T05:08:14.487Z,20.77
2018-07-07T05:10:45.288Z,20.67
2018-07-07T05:13:16.026Z,21.17
2018-07-07T05:15:47.084Z,21.33
2018-07-07T05:18:17.765Z,20.83
2018-07-07T05:20:48.568Z,20.87
2018-07-07T05:23:19.434Z,20.70
2018-07-07T05:25:50.144Z,20.30
2018-07-07T05:28:20.684Z,19.03
2018-07-07T05:30:51.365Z,20.97
2018-07-07T05:33:22.101Z,19.13
2018-07-07T05:35:53.212Z,19.20
2018-07-07T05:38:23.783Z,18.07
2018-07-07T05:40:55.003Z,19.10
2018-07-07T05:43:25.778Z,17.63
2018-07-07T05:45:56.431Z,18.30
2018-07-07T05:48:27.017Z,18.50
2018-07-07T05:50:57.677Z,17.97
2018-07-07T05:53:28.314Z,20.63
2018-07-07T05:55:58.955Z,18.50
2018-07-07T05:58:29.525Z,18.27
2018-07-07T06:01:00.214Z,17.93
2018-07-07T06:03:30.830Z,17.23
2018-07-07T06:06:01.454Z,17.23
2018-07-07T06:08:32.069Z,17.50
2018-07-07T06:11:02.769Z,16.70
2018-07-07T06:13:33.429Z,16.07
2018-07-07T06:16:04.173Z,16.27
2018-07-07T06:18:34.815Z,18.23
2018-07-07T06:21:05.482Z,17.77
2018-07-07T06:23:36.183Z,17.47
2018-07-07T06:26:06.982Z,17.10
2018-07-07T06:28:37.782Z,17.10
2018-07-07T06:31:09.178Z,17.47
2018-07-07T06:33:39.906Z,16.70
2018-07-07T06:36:10.633Z,17.23
2018-07-07T06:38:41.303Z,18.00
2018-07-07T06:41:11.931Z,17.00
2018-07-07T06:43:42.548Z,17.20
2018-07-07T06:46:13.815Z,16.30
2018-07-07T06:48:44.428Z,17.83
2018-07-07T06:51:15.061Z,16.30
2018-07-07T06:53:45.738Z,17.53
2018-07-07T06:56:16.321Z,15.30
2018-07-07T06:58:46.929Z,16.63
2018-07-07T07:01:17.578Z,15.77
2018-07-07T07:03:48.644Z,16.57
2018-07-07T07:06:19.356Z,15.03
2018-07-07T07:08:50.166Z,16.10
2018-07-07T07:11:20.858Z,16.17
2018-07-07T07:13:54.553Z,16.00
2018-07-07T07:16:25.165Z,18.37
2018-07-07T07:18:55.754Z,31.70
2018-07-07T07:21:26.500Z,25.80
2018-07-07T07:23:57.135Z,16.33
2018-07-07T07:26:27.855Z,15.60
2018-07-07T07:28:58.600Z,14.43
2018-07-07T07:31:29.333Z,14.47
2018-07-07T07:33:59.918Z,13.40
2018-07-07T07:36:43.681Z,15.80
2018-07-07T07:39:14.498Z,13.90
2018-07-07T07:41:45.512Z,13.30
2018-07-07T07:44:16.138Z,14.07
2018-07-07T07:46:46.795Z,13.20
2018-07-07T07:49:17.391Z,12.07
2018-07-07T07:51:48.020Z,14.00
2018-07-07T07:54:18.732Z,12.67
2018-07-07T07:56:49.451Z,12.07
2018-07-07T07:59:20.022Z,12.33
2018-07-07T08:01:50.685Z,11.70
2018-07-07T08:04:21.324Z,13.97
2018-07-07T08:06:51.991Z,12.20
2018-07-07T08:09:22.615Z,12.30
2018-07-07T08:11:53.302Z,10.83
2018-07-07T08:14:23.993Z,11.70
2018-07-07T08:16:54.959Z,11.50
2018-07-07T08:19:25.628Z,10.60
2018-07-07T08:21:56.292Z,11.30
2018-07-07T08:24:27.772Z,12.03
2018-07-07T08:26:58.444Z,10.83
2018-07-07T08:29:29.085Z,10.80
2018-07-07T08:31:59.703Z,10.60
2018-07-07T08:34:30.450Z,10.97
2018-07-07T08:37:01.153Z,12.13
2018-07-07T08:39:31.843Z,11.70
2018-07-07T08:42:02.580Z,11.07
2018-07-07T08:44:33.177Z,11.03
2018-07-07T08:47:03.799Z,10.73
2018-07-07T08:49:34.480Z,10.93
2018-07-07T08:52:05.184Z,10.20
2018-07-07T08:54:35.733Z,11.00
2018-07-07T08:57:06.583Z,10.00
2018-07-07T08:59:37.256Z,10.50
2018-07-07T09:02:07.918Z,10.57
2018-07-07T09:04:38.537Z,10.27
2018-07-07T09:07:09.253Z,10.30
2018-07-07T09:09:39.894Z,10.70
2018-07-07T09:12:10.545Z,10.50
2018-07-07T09:14:41.114Z,10.07
2018-07-07T09:17:12.061Z,10.10
2018-07-07T09:19:42.728Z,9.13
2018-07-07T09:22:13.373Z,9.40
2018-07-07T09:24:43.968Z,10.40
2018-07-07T09:27:14.657Z,10.70
2018-07-07T09:29:45.327Z,10.87
2018-07-07T09:32:15.914Z,9.43
2018-07-07T09:34:46.680Z,9.50
2018-07-07T09:37:17.297Z,9.63
2018-07-07T09:39:47.836Z,9.20
2018-07-07T09:42:18.445Z,10.10
2018-07-07T09:44:49.057Z,9.53
2018-07-07T09:47:19.789Z,9.90
2018-07-07T09:49:50.531Z,8.50
2018-07-07T09:52:21.269Z,10.00
2018-07-07T09:54:52.346Z,8.90
2018-07-07T09:57:23.029Z,9.30
2018-07-07T09:59:53.712Z,8.90
2018-07-07T10:02:24.405Z,16.93
2018-07-07T10:04:54.975Z,20.10
2018-07-07T10:07:25.724Z,10.43
2018-07-07T10:09:56.292Z,9.33
2018-07-07T10:12:26.912Z,8.97
2018-07-07T10:14:57.520Z,9.30
2018-07-07T10:17:28.282Z,8.07
2018-07-07T10:19:58.897Z,8.60
2018-07-07T10:22:29.583Z,8.30
2018-07-07T10:25:00.252Z,8.50
2018-07-07T10:27:30.839Z,8.80
2018-07-07T10:30:01.441Z,7.60
2018-07-07T10:32:32.080Z,7.87
2018-07-07T10:35:02.750Z,7.13
2018-07-07T10:37:33.347Z,7.60
2018-07-07T10:40:03.929Z,7.53
2018-07-07T10:42:34.584Z,7.23
2018-07-07T10:45:05.413Z,7.57
2018-07-07T10:47:35.969Z,6.80
2018-07-07T10:50:06.650Z,7.30
2018-07-07T10:52:37.251Z,6.43
2018-07-07T10:55:07.930Z,7.20
2018-07-07T10:57:38.526Z,7.47
2018-07-07T11:00:09.250Z,6.87
2018-07-07T11:02:39.913Z,6.37
2018-07-07T11:05:10.580Z,6.50
2018-07-07T11:07:41.189Z,6.23
2018-07-07T11:10:11.815Z,6.83
2018-07-07T11:12:42.369Z,7.20
2018-07-07T11:15:13.071Z,7.87
2018-07-07T11:17:43.681Z,7.03
2018-07-07T11:20:14.225Z,6.40
2018-07-07T11:22:44.878Z,7.10
2018-07-07T11:25:15.528Z,7.47
2018-07-07T11:27:46.153Z,7.50
2018-07-07T11:30:16.830Z,6.60
2018-07-07T11:32:47.430Z,6.43
2018-07-07T11:35:18.137Z,6.43
2018-07-07T11:37:49.165Z,6.90
2018-07-07T11:40:19.873Z,6.73
2018-07-07T11:42:50.549Z,6.97
2018-07-07T11:45:21.158Z,7.10
2018-07-07T11:47:51.910Z,7.00
2018-07-07T11:50:22.635Z,7.07
2018-07-07T11:52:53.262Z,7.10
2018-07-07T11:55:23.964Z,6.80
2018-07-07T11:57:54.649Z,7.10
2018-07-07T12:00:25.341Z,7.23
2018-07-07T12:02:55.935Z,7.57
2018-07-07T12:05:26.599Z,7.47
2018-07-07T12:08:00.902Z,6.90
2018-07-07T12:10:27.927Z,7.90
2018-07-07T12:12:58.559Z,7.13
2018-07-07T12:15:29.179Z,7.60
2018-07-07T12:17:59.879Z,7.10
2018-07-07T12:20:30.799Z,6.90
2018-07-07T12:23:01.454Z,6.40
2018-07-07T12:25:32.149Z,6.50
2018-07-07T12:28:02.832Z,6.23
2018-07-07T12:30:33.498Z,6.70
2018-07-07T12:33:04.144Z,6.83
2018-07-07T12:35:35.364Z,6.40
2018-07-07T12:38:06.017Z,7.20
2018-07-07T12:40:36.771Z,6.53
2018-07-07T12:43:07.673Z,6.40
2018-07-07T12:45:38.371Z,6.53
2018-07-07T12:48:08.569Z,5.40
2018-07-07T12:50:39.077Z,6.23
2018-07-07T12:53:09.734Z,6.30
2018-07-07T12:55:40.387Z,6.40
2018-07-07T12:58:11.014Z,6.07
2018-07-07T13:00:41.644Z,6.90
2018-07-07T13:03:12.341Z,5.87
2018-07-07T13:05:43.027Z,6.37
2018-07-07T13:08:13.288Z,6.20
2018-07-07T13:10:43.835Z,5.90
2018-07-07T13:13:14.497Z,5.80
2018-07-07T13:15:45.070Z,5.40
2018-07-07T13:18:15.689Z,5.80
2018-07-07T13:20:46.383Z,5.97
2018-07-07T13:23:16.971Z,5.87
2018-07-07T13:25:47.635Z,5.37
2018-07-07T13:28:18.311Z,5.40
2018-07-07T13:30:48.907Z,5.70
2018-07-07T13:33:19.577Z,5.43
2018-07-07T13:35:50.222Z,5.80
2018-07-07T13:38:20.858Z,5.70
2018-07-07T13:40:51.552Z,4.90
2018-07-07T13:43:22.224Z,5.17
2018-07-07T13:45:52.861Z,6.00
2018-07-07T13:48:23.505Z,5.37
2018-07-07T13:50:54.120Z,4.27
2018-07-07T13:53:24.763Z,5.13
2018-07-07T13:55:55.420Z,4.73
2018-07-07T13:58:26.115Z,4.87
2018-07-07T14:00:57.235Z,5.13
2018-07-07T14:03:28.394Z,4.77
2018-07-07T14:05:58.969Z,5.13
2018-07-07T14:08:29.675Z,5.50
2018-07-07T14:11:00.405Z,4.80
2018-07-07T14:13:31.037Z,4.60
2018-07-07T14:16:01.655Z,5.43
2018-07-07T14:18:32.379Z,4.60
2018-07-07T14:21:02.977Z,4.67
2018-07-07T14:23:34.255Z,4.73
2018-07-07T14:26:04.861Z,4.67
2018-07-07T14:28:35.527Z,5.00
2018-07-07T14:31:06.126Z,4.67
2018-07-07T14:33:36.746Z,4.70
2018-07-07T14:36:07.406Z,4.90
2018-07-07T14:38:38.741Z,4.83
2018-07-07T14:41:17.619Z,5.03
2018-07-07T14:43:54.022Z,5.13
2018-07-07T14:46:25.425Z,5.10
2018-07-07T14:48:56.130Z,5.10
2018-07-07T14:51:26.831Z,5.50
2018-07-07T14:53:57.531Z,5.13
2018-07-07T14:56:28.927Z,5.37
2018-07-07T14:58:59.544Z,5.00
2018-07-07T15:01:30.222Z,4.87
2018-07-07T15:04:03.172Z,5.30
2018-07-07T15:06:33.789Z,5.50
2018-07-07T15:09:05.242Z,4.80
2018-07-07T15:11:35.909Z,4.53
2018-07-07T15:14:06.669Z,5.10
2018-07-07T15:16:37.321Z,5.03
2018-07-07T15:19:07.969Z,4.90
2018-07-07T15:21:38.574Z,4.53
2018-07-07T15:24:09.454Z,4.53
2018-07-07T15:26:40.081Z,4.90
2018-07-07T15:29:10.760Z,4.70
2018-07-07T15:31:41.404Z,4.80
2018-07-07T15:34:12.130Z,4.70
2018-07-07T15:36:42.729Z,4.70
2018-07-07T15:39:13.415Z,4.80
2018-07-07T15:41:44.006Z,5.03
2018-07-07T15:44:14.621Z,4.77
2018-07-07T15:46:45.251Z,5.00
2018-07-07T15:49:15.885Z,5.10
2018-07-07T15:51:46.588Z,5.70
2018-07-07T15:54:17.257Z,4.60
2018-07-07T15:56:47.974Z,5.67
2018-07-07T15:59:18.653Z,5.43
2018-07-07T16:01:49.321Z,5.27
2018-07-07T16:04:20.030Z,5.17
2018-07-07T16:06:50.622Z,8.20
2018-07-07T16:09:21.293Z,7.43
2018-07-07T16:11:52.044Z,6.23
2018-07-07T16:14:22.715Z,5.80
2018-07-07T16:16:53.279Z,6.03
2018-07-07T16:19:24.022Z,6.00
2018-07-07T16:21:54.897Z,6.07
2018-07-07T16:24:25.938Z,5.43
2018-07-07T16:26:56.481Z,6.20
2018-07-07T16:29:27.158Z,6.10
2018-07-07T16:31:57.829Z,6.50
2018-07-07T16:34:28.521Z,6.47
2018-07-07T16:36:59.143Z,5.80
2018-07-07T16:39:29.942Z,5.40
2018-07-07T16:42:00.609Z,6.30
2018-07-07T16:44:31.311Z,6.43
2018-07-07T16:47:03.631Z,6.13
2018-07-07T16:49:34.813Z,6.47
2018-07-07T16:52:05.779Z,6.40
2018-07-07T16:54:36.571Z,6.67
2018-07-07T16:57:07.274Z,6.07
2018-07-07T16:59:38.004Z,6.70
2018-07-07T17:02:08.892Z,6.60
2018-07-07T17:04:39.336Z,6.60
2018-07-07T17:07:09.908Z,6.97
2018-07-07T17:09:40.605Z,6.80
2018-07-07T17:12:11.284Z,6.30
2018-07-07T17:14:42.053Z,6.67
2018-07-07T17:17:12.727Z,6.53
2018-07-07T17:19:43.714Z,6.93
2018-07-07T17:22:14.316Z,8.33
2018-07-07T17:24:45.648Z,6.90
2018-07-07T17:27:16.267Z,6.90
2018-07-07T17:29:47.057Z,7.50
2018-07-07T17:32:17.369Z,7.47
2018-07-07T17:34:48.027Z,6.87
2018-07-07T17:37:18.741Z,6.70
2018-07-07T17:39:49.569Z,6.80
2018-07-07T17:42:20.212Z,8.00
2018-07-07T17:44:50.914Z,7.60
2018-07-07T17:47:21.653Z,8.03
2018-07-07T17:49:52.354Z,7.90
2018-07-07T17:52:23.761Z,7.30
2018-07-07T17:54:54.579Z,7.00
2018-07-07T17:57:25.579Z,7.50
2018-07-07T17:59:56.967Z,7.60
2018-07-07T18:02:27.969Z,7.10
2018-07-07T18:04:58.691Z,7.37
2018-07-07T18:07:29.354Z,7.10
2018-07-07T18:10:00.054Z,7.50
2018-07-07T18:12:30.661Z,8.27
2018-07-07T18:15:01.323Z,7.53
2018-07-07T18:17:31.950Z,7.03
2018-07-07T18:20:02.562Z,7.37
2018-07-07T18:22:33.214Z,8.63
2018-07-07T18:25:04.578Z,7.80
2018-07-07T18:27:35.221Z,7.27
2018-07-07T18:30:05.937Z,7.60
2018-07-07T18:32:36.606Z,6.87
2018-07-07T18:35:07.335Z,7.87
2018-07-07T18:37:38.062Z,7.70
2018-07-07T18:40:08.953Z,7.40
2018-07-07T18:42:39.599Z,6.80
2018-07-07T18:45:10.404Z,7.30
2018-07-07T18:47:41.086Z,7.50
2018-07-07T18:50:11.805Z,7.40
2018-07-07T18:52:42.459Z,7.10
2018-07-07T18:55:13.262Z,6.90
2018-07-07T18:57:43.916Z,7.70
2018-07-07T19:00:14.613Z,7.17
2018-07-07T19:02:45.235Z,7.60
2018-07-07T19:05:15.968Z,6.97
2018-07-07T19:07:46.578Z,7.83
2018-07-07T19:10:17.258Z,7.07
2018-07-07T19:12:47.869Z,7.23
2018-07-07T19:15:21.181Z,7.30
2018-07-07T19:17:52.615Z,7.70
2018-07-07T19:20:28.296Z,7.77
2018-07-07T19:23:04.041Z,7.40
2018-07-07T19:25:39.931Z,7.97
2018-07-07T19:28:10.540Z,6.80
2018-07-07T19:30:41.162Z,7.03
2018-07-07T19:33:16.995Z,7.50
2018-07-07T19:35:52.707Z,6.93
2018-07-07T19:38:23.421Z,7.23
2018-07-07T19:40:54.198Z,7.63
2018-07-07T19:43:24.919Z,7.40
2018-07-07T19:45:55.542Z,7.53
2018-07-07T19:48:26.414Z,7.33
2018-07-07T19:50:57.180Z,7.03
2018-07-07T19:53:27.774Z,7.63
2018-07-07T19:55:58.482Z,7.00
2018-07-07T19:58:29.065Z,7.50
2018-07-07T20:00:59.751Z,7.13
2018-07-07T20:03:30.369Z,7.10
2018-07-07T20:06:00.992Z,23.83
2018-07-07T20:08:31.694Z,9.83
2018-07-07T20:11:02.369Z,7.47
2018-07-07T20:13:33.034Z,8.27
2018-07-07T20:16:18.895Z,7.50
2018-07-07T20:19:28.074Z,8.27
2018-07-07T20:21:59.833Z,7.30
2018-07-07T20:24:36.798Z,7.80
2018-07-07T20:27:14.132Z,8.40
2018-07-07T20:29:44.736Z,8.20
2018-07-07T20:32:20.490Z,7.50
2018-07-07T20:34:51.140Z,7.40
2018-07-07T20:37:21.791Z,8.70
2018-07-07T20:39:52.440Z,7.17
2018-07-07T20:42:23.323Z,8.17
2018-07-07T20:44:53.979Z,8.17
2018-07-07T20:47:24.610Z,7.93
2018-07-07T20:49:55.190Z,8.23
2018-07-07T20:52:25.752Z,9.50
2018-07-07T20:54:56.446Z,8.50
2018-07-07T20:57:27.057Z,8.53
2018-07-07T20:59:57.714Z,9.77
2018-07-07T21:02:28.317Z,8.80
2018-07-07T21:04:58.919Z,10.03
2018-07-07T21:07:29.587Z,8.53
2018-07-07T21:10:00.246Z,9.20
2018-07-07T21:12:30.945Z,9.60
2018-07-07T21:15:01.554Z,8.73
2018-07-07T21:17:32.261Z,8.30
2018-07-07T21:20:02.910Z,8.93
2018-07-07T21:22:33.543Z,8.63
2018-07-07T21:25:04.166Z,9.87
2018-07-07T21:27:35.019Z,9.37
2018-07-07T21:30:06.025Z,10.70
2018-07-07T21:32:36.668Z,9.10
2018-07-07T21:35:07.342Z,8.63
2018-07-07T21:37:37.993Z,8.87
2018-07-07T21:40:08.703Z,8.67
2018-07-07T21:42:39.715Z,8.33
2018-07-07T21:45:10.341Z,8.27
2018-07-07T21:47:41.010Z,8.50
2018-07-07T21:50:11.740Z,7.73
2018-07-07T21:52:42.525Z,8.83
2018-07-07T21:55:13.234Z,8.40
2018-07-07T21:57:48.990Z,8.37
2018-07-07T22:00:24.950Z,8.43
2018-07-07T22:03:00.829Z,9.27
2018-07-07T22:05:32.301Z,8.20
2018-07-07T22:08:06.945Z,9.07
2018-07-07T22:10:37.712Z,9.30
2018-07-07T22:13:08.398Z,8.30
2018-07-07T22:15:39.077Z,8.50
2018-07-07T22:18:09.675Z,8.60
2018-07-07T22:20:40.445Z,8.20
2018-07-07T22:23:11.053Z,9.03
2018-07-07T22:25:41.708Z,8.97
2018-07-07T22:28:12.414Z,9.40
2018-07-07T22:30:43.081Z,8.20
2018-07-07T22:33:18.715Z,8.60
2018-07-07T22:35:54.548Z,8.23
2018-07-07T22:38:30.733Z,8.50
2018-07-07T22:41:02.093Z,8.90
2018-07-07T22:43:32.762Z,8.27
2018-07-07T22:46:03.368Z,9.40
2018-07-07T22:48:34.053Z,8.33
2018-07-07T22:51:04.678Z,8.77
2018-07-07T22:53:35.376Z,8.60
2018-07-07T22:56:06.179Z,8.40
2018-07-07T22:58:36.896Z,9.00
2018-07-07T23:01:07.633Z,9.07
2018-07-07T23:03:38.261Z,8.60
2018-07-07T23:06:08.945Z,8.37
2018-07-07T23:08:39.613Z,9.30
2018-07-07T23:11:10.265Z,8.53
2018-07-07T23:13:40.901Z,7.83
2018-07-07T23:16:11.623Z,9.40
2018-07-07T23:18:42.298Z,7.57
2018-07-07T23:21:13.005Z,8.20
2018-07-07T23:23:43.711Z,8.97
2018-07-07T23:26:15.259Z,8.63
2018-07-07T23:28:45.957Z,8.80
2018-07-07T23:31:16.567Z,7.80
2018-07-07T23:33:47.235Z,8.47
2018-07-07T23:36:17.959Z,8.47
2018-07-07T23:38:48.591Z,8.93
2018-07-07T23:41:19.265Z,8.33
2018-07-07T23:43:49.911Z,8.53
2018-07-07T23:46:20.521Z,8.90
2018-07-07T23:48:51.172Z,7.57
2018-07-07T23:51:21.797Z,8.53
2018-07-07T23:53:52.397Z,8.10
2018-07-07T23:56:23.026Z,8.17
2018-07-07T23:58:53.659Z,8.10
